Time;durP1;ratioP1;P1;durP2;ratioP2;P2;SDS_P1;SDS_P2;PMS_P1;PMS_P2;Temp;Humidity;BMP_temperature;BMP_pressure;BME280_temperature;BME280_humidity;BME280_pressure;Samples;Min_cycle;Max_cycle;Signal;HPM_P1;HPM_P2
2024/02/22 00:02:39;;;;;;;;;;;;;;;8.91;72.23;98495.44;68331;1281;1016127;-69
2024/02/22 00:05:42;;;;;;;;;;;;;;;8.93;71.75;98482.38;68346;1280;1015353;-70
2024/02/22 00:08:44;;;;;;;;;;;;;;;8.96;71.65;98481.64;68323;1281;1015781;-70
2024/02/22 00:11:47;;;;;;;;;;;;;;;8.93;72.28;98478.34;68337;1281;1015640;-69
2024/02/22 00:14:51;;;;;;;;;;;;;;;8.98;72.10;98481.39;68349;1281;1015352;-70
2024/02/22 00:17:53;;;;;;;;;;;;;;;9.03;71.70;98477.08;68322;1281;1015498;-70
2024/02/22 00:20:57;;;;;;;;;;;;;;;9.09;71.41;98469.71;68336;1281;1015354;-70
2024/02/22 00:23:59;;;;;;;;;;;;;;;9.09;70.96;98465.55;68336;1281;1016185;-70
2024/02/22 00:27:02;;;;;;;;;;;;;;;8.95;71.12;98471.08;68332;1281;1014596;-69
2024/02/22 00:30:05;;;;;;;;;;;;;;;8.92;71.16;98466.20;68342;1281;1016041;-70
2024/02/22 00:33:08;;;;;;;;;;;;;;;8.95;70.61;98458.90;68345;1281;1015486;-70
2024/02/22 00:36:10;;;;;;;;;;;;;;;8.92;71.28;98455.60;68351;1281;1015521;-69
2024/02/22 00:39:13;;;;;;;;;;;;;;;8.77;71.02;98451.61;68332;1281;1015418;-70
2024/02/22 00:42:16;;;;;;;;;;;;;;;8.80;70.85;98443.94;68339;1281;1015967;-70
2024/02/22 00:45:19;;;;;;;;;;;;;;;8.91;70.49;98441.37;68337;1281;1015081;-69
2024/02/22 00:48:21;;;;;;;;;;;;;;;8.82;70.29;98432.81;68349;1281;1016022;-69
2024/02/22 00:51:24;;;;;;;;;;;;;;;8.87;69.86;98430.98;68327;1281;1015486;-69
2024/02/22 00:54:26;;;;;;;;;;;;;;;8.89;70.06;98417.92;68330;1281;1015763;-69
2024/02/22 00:57:29;;;;;;;;;;;;;;;8.95;69.86;98417.72;68325;1281;1015547;-70
2024/02/22 01:00:31;;;;;;;;;;;;;;;8.95;69.53;98414.45;68334;1281;1014650;-69
2024/02/22 01:03:34;;;;;;;;;;;;;;;8.80;69.78;98403.81;68356;1281;1014529;-70
2024/02/22 01:06:37;;;;;;;;;;;;;;;8.73;70.25;98396.23;68349;1281;1016173;-70
2024/02/22 01:09:39;;;;;;;;;;;;;;;8.85;70.42;98390.29;68344;1281;1015520;-69
2024/02/22 01:12:42;;;;;;;;;;;;;;;8.74;70.79;98384.52;68326;1281;1015421;-70
2024/02/22 01:15:44;;;;;;;;;;;;;;;8.58;71.56;98380.59;68335;1281;1015257;-70
2024/02/22 01:18:47;;;;;;;;;;;;;;;8.65;71.04;98371.57;68335;1281;1015967;-69
2024/02/22 01:21:50;;;;;;;;;;;;;;;8.61;71.32;98370.28;68333;1281;1016277;-70
2024/02/22 01:24:53;;;;;;;;;;;;;;;8.62;71.43;98368.46;68343;1281;1014842;-69
2024/02/22 01:27:55;;;;;;;;;;;;;;;8.70;71.42;98362.23;68324;1281;1016084;-69
2024/02/22 01:30:58;;;;;;;;;;;;;;;8.67;71.82;98360.80;68320;1281;1015036;-69
2024/02/22 01:34:00;;;;;;;;;;;;;;;8.78;71.79;98348.50;68346;1281;1016500;-69
2024/02/22 01:37:03;;;;;;;;;;;;;;;8.93;71.64;98340.80;68336;1281;1015713;-70
2024/02/22 01:40:08;;;;;;;;;;;;;;;9.03;71.81;98337.73;68323;1281;1016093;-70
2024/02/22 01:43:10;;;;;;;;;;;;;;;9.03;71.12;98335.98;68336;1281;1015758;-69
2024/02/22 01:46:13;;;;;;;;;;;;;;;9.06;71.15;98328.88;68343;1281;1016020;-68
2024/02/22 01:49:16;;;;;;;;;;;;;;;9.22;70.76;98325.72;68343;1281;1016139;-69
2024/02/22 01:52:19;;;;;;;;;;;;;;;9.21;70.69;98317.78;68336;1281;1015577;-70
2024/02/22 01:55:22;;;;;;;;;;;;;;;9.20;70.64;98313.48;68337;1281;1015190;-68
2024/02/22 01:58:24;;;;;;;;;;;;;;;9.19;70.49;98304.11;68330;1281;1015316;-69
2024/02/22 02:01:27;;;;;;;;;;;;;;;9.16;70.78;98294.34;68355;1281;1015747;-69
2024/02/22 02:04:29;;;;;;;;;;;;;;;9.17;70.04;98298.13;68344;1281;1015939;-69
2024/02/22 02:07:32;;;;;;;;;;;;;;;9.18;70.11;98287.11;68350;1281;1016111;-69
2024/02/22 02:10:35;;;;;;;;;;;;;;;9.16;69.81;98283.35;68341;1281;1016087;-69
2024/02/22 02:13:37;;;;;;;;;;;;;;;9.07;70.74;98286.00;68341;1281;1015478;-70
2024/02/22 02:16:40;;;;;;;;;;;;;;;9.12;70.47;98283.97;68321;1281;1015457;-69
2024/02/22 02:19:43;;;;;;;;;;;;;;;9.14;70.50;98281.95;68339;1281;1015834;-70
2024/02/22 02:22:45;;;;;;;;;;;;;;;9.16;70.42;98270.29;68341;1281;1015936;-70
2024/02/22 02:25:48;;;;;;;;;;;;;;;9.09;70.32;98271.97;68348;1281;1015575;-69
2024/02/22 02:28:51;;;;;;;;;;;;;;;9.04;70.10;98270.34;68340;1281;1015548;-69
2024/02/22 02:31:53;;;;;;;;;;;;;;;9.04;70.30;98271.06;68333;1281;1015943;-70
2024/02/22 02:34:56;;;;;;;;;;;;;;;9.07;70.01;98265.45;68331;1281;1015507;-69
2024/02/22 02:37:58;;;;;;;;;;;;;;;8.93;70.33;98263.17;68334;1281;1015297;-68
2024/02/22 02:41:01;;;;;;;;;;;;;;;8.81;70.83;98253.48;68346;1281;1015584;-69
2024/02/22 02:44:04;;;;;;;;;;;;;;;8.79;71.02;98250.67;68350;1281;1015999;-70
2024/02/22 02:47:08;;;;;;;;;;;;;;;8.78;70.98;98250.16;68332;1281;1016132;-70
2024/02/22 02:50:11;;;;;;;;;;;;;;;8.77;70.86;98246.41;68342;1281;1015823;-69
2024/02/22 02:53:14;;;;;;;;;;;;;;;8.80;70.49;98251.27;68345;1281;1015677;-70
2024/02/22 02:56:17;;;;;;;;;;;;;;;8.89;70.64;98245.14;68330;1281;1016061;-63
2024/02/22 02:59:20;;;;;;;;;;;;;;;8.93;70.81;98239.48;68335;1281;1016221;-69
2024/02/22 03:02:22;;;;;;;;;;;;;;;8.90;70.92;98236.52;68335;1281;1015375;-70
2024/02/22 03:05:26;;;;;;;;;;;;;;;8.92;70.99;98233.80;68341;1281;1016125;-69
2024/02/22 03:08:29;;;;;;;;;;;;;;;8.85;71.18;98235.61;68337;1281;1016179;-70
2024/02/22 03:11:32;;;;;;;;;;;;;;;8.78;71.40;98231.40;68334;1281;1016142;-69
2024/02/22 03:14:35;;;;;;;;;;;;;;;8.87;70.69;98229.89;68337;1281;1016197;-70
2024/02/22 03:17:37;;;;;;;;;;;;;;;8.88;70.54;98228.43;68341;1281;1015909;-69
2024/02/22 03:20:41;;;;;;;;;;;;;;;8.81;71.30;98220.89;68338;1281;1015935;-70
2024/02/22 03:23:43;;;;;;;;;;;;;;;8.86;71.30;98218.66;68327;1281;1015732;-62
2024/02/22 03:26:48;;;;;;;;;;;;;;;8.92;71.19;98213.60;68350;1281;1015811;-69
2024/02/22 03:29:51;;;;;;;;;;;;;;;8.99;70.65;98213.77;68337;1281;1015097;-70
2024/02/22 03:32:54;;;;;;;;;;;;;;;9.05;70.34;98205.96;68363;1281;1016051;-68
2024/02/22 03:35:57;;;;;;;;;;;;;;;8.99;70.87;98202.11;68340;1281;1015299;-70
2024/02/22 03:38:59;;;;;;;;;;;;;;;9.11;70.31;98193.02;68372;1280;1016346;-68
2024/02/22 03:42:02;;;;;;;;;;;;;;;9.12;70.25;98192.73;68416;1280;1016196;-69
2024/02/22 03:45:05;;;;;;;;;;;;;;;9.12;70.53;98193.45;68436;1280;1015938;-70
2024/02/22 03:48:08;;;;;;;;;;;;;;;9.11;70.30;98187.19;68406;1280;1016319;-69
2024/02/22 03:51:11;;;;;;;;;;;;;;;9.14;70.04;98179.90;68393;1280;1015611;-69
2024/02/22 03:54:14;;;;;;;;;;;;;;;9.17;69.57;98178.30;68409;1279;1015956;-69
2024/02/22 03:57:16;;;;;;;;;;;;;;;9.19;69.45;98170.66;68424;1280;1015821;-70
2024/02/22 04:00:19;;;;;;;;;;;;;;;9.24;69.11;98166.51;68410;1280;1016249;-69
2024/02/22 04:03:21;;;;;;;;;;;;;;;9.33;69.20;98162.78;68400;1280;1015794;-69
2024/02/22 04:06:24;;;;;;;;;;;;;;;9.35;68.67;98162.50;68398;1280;1015521;-69
2024/02/22 04:09:27;;;;;;;;;;;;;;;9.28;68.66;98160.48;68404;1280;1015336;-69
2024/02/22 04:12:29;;;;;;;;;;;;;;;9.27;68.77;98159.48;68421;1280;1015769;-69
2024/02/22 04:15:32;;;;;;;;;;;;;;;9.36;68.16;98157.38;68413;1279;1015545;-69
2024/02/22 04:18:34;;;;;;;;;;;;;;;9.23;68.47;98158.89;68428;1280;1016290;-70
2024/02/22 04:21:38;;;;;;;;;;;;;;;9.15;68.86;98154.52;68415;1279;1016040;-69
2024/02/22 04:24:41;;;;;;;;;;;;;;;9.16;68.82;98150.50;68401;1279;1016174;-68
2024/02/22 04:27:43;;;;;;;;;;;;;;;9.21;68.80;98148.77;68421;1280;1014375;-70
2024/02/22 04:30:46;;;;;;;;;;;;;;;9.32;68.45;98150.98;68390;1280;1015994;-70
2024/02/22 04:33:49;;;;;;;;;;;;;;;9.36;68.40;98147.20;68397;1279;1015684;-69
2024/02/22 04:36:51;;;;;;;;;;;;;;;9.40;68.47;98138.77;68400;1279;1015850;-69
2024/02/22 04:39:54;;;;;;;;;;;;;;;9.45;67.81;98131.27;68412;1279;1014612;-68
2024/02/22 04:42:56;;;;;;;;;;;;;;;9.40;67.86;98121.51;68413;1279;1015385;-70
2024/02/22 04:45:59;;;;;;;;;;;;;;;9.40;67.88;98122.00;68411;1280;1015496;-70
2024/02/22 04:49:02;;;;;;;;;;;;;;;9.39;67.84;98116.48;68406;1279;1015946;-69
2024/02/22 04:52:05;;;;;;;;;;;;;;;9.36;67.96;98112.17;68390;1280;1015439;-70
2024/02/22 04:55:08;;;;;;;;;;;;;;;9.39;68.37;98108.98;68390;1280;1015871;-69
2024/02/22 04:58:11;;;;;;;;;;;;;;;9.56;67.60;98112.90;68390;1280;1016078;-69
2024/02/22 05:01:13;;;;;;;;;;;;;;;9.45;67.54;98105.24;68417;1279;1016246;-69
2024/02/22 05:04:16;;;;;;;;;;;;;;;9.39;68.05;98097.98;68409;1279;1015951;-69
2024/02/22 05:07:18;;;;;;;;;;;;;;;9.45;67.64;98090.81;68398;1279;1016018;-68
2024/02/22 05:10:21;;;;;;;;;;;;;;;9.39;67.89;98090.34;68399;1280;1015392;-69
2024/02/22 05:13:24;;;;;;;;;;;;;;;9.33;67.88;98088.94;68412;1279;1015230;-70
2024/02/22 05:16:27;;;;;;;;;;;;;;;9.24;68.65;98077.91;68411;1279;1015647;-69
2024/02/22 05:19:29;;;;;;;;;;;;;;;9.23;68.68;98075.36;68402;1279;1015374;-69
2024/02/22 05:22:32;;;;;;;;;;;;;;;9.28;68.53;98077.48;68397;1279;1015165;-68
2024/02/22 05:25:34;;;;;;;;;;;;;;;9.26;68.91;98075.33;68410;1279;1015990;-68
2024/02/22 05:28:37;;;;;;;;;;;;;;;9.26;69.58;98076.52;68411;1279;1015485;-69
2024/02/22 05:31:39;;;;;;;;;;;;;;;9.30;69.41;98074.02;68412;1279;1015960;-69
2024/02/22 05:34:42;;;;;;;;;;;;;;;9.25;69.36;98075.73;68404;1279;1016272;-69
2024/02/22 05:37:45;;;;;;;;;;;;;;;9.16;69.79;98074.74;68405;1279;1015861;-69
2024/02/22 05:40:48;;;;;;;;;;;;;;;9.41;69.05;98073.58;68404;1279;1015391;-69
2024/02/22 05:43:51;;;;;;;;;;;;;;;9.61;68.09;98069.95;68395;1279;1016139;-69
2024/02/22 05:46:53;;;;;;;;;;;;;;;9.56;68.12;98067.71;68389;1279;1016080;-69
2024/02/22 05:49:56;;;;;;;;;;;;;;;9.57;67.85;98071.12;68407;1279;1015695;-69
2024/02/22 05:52:59;;;;;;;;;;;;;;;9.65;67.75;98069.03;68409;1279;1015803;-69
2024/02/22 05:56:02;;;;;;;;;;;;;;;9.62;67.71;98071.98;68399;1279;1015931;-69
2024/02/22 05:59:08;;;;;;;;;;;;;;;9.61;68.19;98067.67;68410;1280;1016005;-70
2024/02/22 06:02:11;;;;;;;;;;;;;;;9.57;68.29;98072.01;68393;1279;1015607;-69
2024/02/22 06:05:14;;;;;;;;;;;;;;;9.59;68.32;98071.67;68408;1279;1015593;-70
2024/02/22 06:08:17;;;;;;;;;;;;;;;9.65;68.35;98066.73;68407;1279;1015522;-69
2024/02/22 06:11:20;;;;;;;;;;;;;;;9.71;68.55;98067.49;68403;1279;1015609;-69
2024/02/22 06:14:22;;;;;;;;;;;;;;;9.77;68.04;98056.82;68392;1279;1016000;-69
2024/02/22 06:17:25;;;;;;;;;;;;;;;9.77;67.65;98054.59;68396;1279;1015012;-69
2024/02/22 06:20:27;;;;;;;;;;;;;;;9.73;68.46;98056.59;68419;1279;1015891;-69
2024/02/22 06:23:30;;;;;;;;;;;;;;;9.91;67.70;98053.41;68398;1279;1016155;-69
2024/02/22 06:26:33;;;;;;;;;;;;;;;9.93;67.81;98043.63;68400;1279;1015339;-69
2024/02/22 06:29:45;;;;;;;;;;;;;;;;;;;;;
2024/02/22 06:32:49;;;;;;;;;;;;;;;10.00;67.43;98038.39;68416;1279;1015671;-69
2024/02/22 06:35:51;;;;;;;;;;;;;;;10.10;67.18;98038.12;68391;1279;1015418;-69
2024/02/22 06:38:54;;;;;;;;;;;;;;;10.14;67.05;98036.27;68398;1279;1016105;-69
2024/02/22 06:41:56;;;;;;;;;;;;;;;10.24;67.07;98034.84;68401;1279;1015690;-69
2024/02/22 06:44:59;;;;;;;;;;;;;;;10.29;67.09;98025.77;68415;1279;1015494;-69
2024/02/22 06:48:01;;;;;;;;;;;;;;;10.43;66.71;98018.61;68384;1279;1015736;-69
2024/02/22 06:51:05;;;;;;;;;;;;;;;10.56;66.22;98006.69;68409;1279;1015696;-70
2024/02/22 06:54:08;;;;;;;;;;;;;;;10.58;66.04;98000.20;68404;1279;1015652;-69
2024/02/22 06:57:10;;;;;;;;;;;;;;;10.54;65.69;98000.33;68400;1279;1016145;-69
2024/02/22 07:00:14;;;;;;;;;;;;;;;10.58;66.23;97995.31;68408;1279;1015880;-70
2024/02/22 07:03:16;;;;;;;;;;;;;;;10.73;66.09;97990.55;68396;1279;1015555;-69
2024/02/22 07:06:19;;;;;;;;;;;;;;;10.79;66.00;97988.72;68396;1279;1015252;-69
2024/02/22 07:09:21;;;;;;;;;;;;;;;10.87;65.54;97981.31;68398;1279;1014540;-69
2024/02/22 07:12:24;;;;;;;;;;;;;;;10.98;65.17;97971.55;68390;1279;1016219;-69
2024/02/22 07:15:27;;;;;;;;;;;;;;;11.01;64.92;97968.34;68404;1279;1015208;-69
2024/02/22 07:18:29;;;;;;;;;;;;;;;11.15;64.82;97967.49;68392;1279;1015312;-69
2024/02/22 07:21:32;;;;;;;;;;;;;;;11.22;64.73;97968.99;68387;1279;1016225;-69
2024/02/22 07:24:34;;;;;;;;;;;;;;;11.22;64.67;97966.73;68398;1279;1015887;-69
2024/02/22 07:27:38;;;;;;;;;;;;;;;11.31;64.30;97963.26;68399;1279;1015232;-70
2024/02/22 07:30:41;;;;;;;;;;;;;;;11.43;64.26;97961.75;68407;1279;1015444;-70
2024/02/22 07:33:44;;;;;;;;;;;;;;;11.57;63.59;97962.81;68401;1279;1015062;-70
2024/02/22 07:36:47;;;;;;;;;;;;;;;11.78;62.88;97960.45;68392;1279;1016222;-69
2024/02/22 07:39:50;;;;;;;;;;;;;;;11.88;62.58;97954.91;68407;1279;1015719;-70
2024/02/22 07:42:52;;;;;;;;;;;;;;;12.04;61.36;97954.23;68386;1279;1016299;-70
2024/02/22 07:45:55;;;;;;;;;;;;;;;12.01;61.64;97950.38;68402;1279;1015252;-68
2024/02/22 07:48:57;;;;;;;;;;;;;;;12.01;61.87;97947.96;68406;1279;1016028;-69
2024/02/22 07:52:00;;;;;;;;;;;;;;;12.22;62.02;97946.94;68399;1279;1015629;-68
2024/02/22 07:55:02;;;;;;;;;;;;;;;12.38;61.18;97943.20;68414;1279;1015993;-70
2024/02/22 07:58:05;;;;;;;;;;;;;;;12.28;61.69;97937.72;68405;1279;1015233;-70
2024/02/22 08:01:08;;;;;;;;;;;;;;;12.54;61.90;97931.52;68418;1279;1015612;-69
2024/02/22 08:04:11;;;;;;;;;;;;;;;12.79;60.65;97931.16;65822;1279;6376576;-69
2024/02/22 08:07:15;;;;;;;;;;;;;;;12.81;60.93;97926.08;68397;1279;1015448;-69
2024/02/22 08:10:18;;;;;;;;;;;;;;;12.82;60.61;97924.98;68409;1279;1015402;-69
2024/02/22 08:13:21;;;;;;;;;;;;;;;12.76;60.57;97922.67;68408;1279;1015761;-69
2024/02/22 08:16:23;;;;;;;;;;;;;;;12.81;60.50;97924.72;68401;1279;1015974;-68
2024/02/22 08:19:26;;;;;;;;;;;;;;;12.75;60.91;97921.41;68392;1279;1015978;-70
2024/02/22 08:22:37;;;;;;;;;;;;;;;12.75;61.08;97918.40;68398;1279;1016147;-69
2024/02/22 08:25:39;;;;;;;;;;;;;;;12.98;61.55;97919.44;68420;1279;1015976;-70
2024/02/22 08:28:42;;;;;;;;;;;;;;;13.19;61.12;97914.45;68398;1279;1016013;-69
2024/02/22 08:31:45;;;;;;;;;;;;;;;13.24;60.68;97908.46;68413;1279;1015670;-69
2024/02/22 08:34:48;;;;;;;;;;;;;;;13.15;61.00;97906.27;68394;1279;1016244;-69
2024/02/22 08:37:51;;;;;;;;;;;;;;;13.24;60.18;97900.69;68407;1279;1015720;-68
2024/02/22 08:40:53;;;;;;;;;;;;;;;13.24;60.47;97900.35;68419;1279;1015291;-69
2024/02/22 08:43:57;;;;;;;;;;;;;;;13.41;59.10;97896.42;68407;1279;1016490;-69
2024/02/22 08:47:03;;;;;;;;;;;;;;;13.52;59.24;97894.47;68407;1279;1015927;-70
2024/02/22 08:50:06;;;;;;;;;;;;;;;13.59;59.27;97898.23;68413;1279;1015912;-69
2024/02/22 08:53:08;;;;;;;;;;;;;;;13.67;58.62;97895.61;68401;1279;1015669;-69
2024/02/22 08:56:11;;;;;;;;;;;;;;;13.63;57.99;97893.97;68410;1279;1015781;-69
2024/02/22 08:59:13;;;;;;;;;;;;;;;13.75;58.44;97893.13;68416;1279;1015734;-67
2024/02/22 09:02:16;;;;;;;;;;;;;;;13.92;58.26;97885.55;68420;1279;1015767;-70
2024/02/22 09:05:19;;;;;;;;;;;;;;;13.98;57.80;97886.91;68385;1279;1015321;-65
2024/02/22 09:08:21;;;;;;;;;;;;;;;14.02;57.89;97877.88;68409;1279;1015511;-69
2024/02/22 09:11:24;;;;;;;;;;;;;;;13.98;57.55;97878.40;68427;1279;1016187;-69
2024/02/22 09:14:27;;;;;;;;;;;;;;;13.96;57.22;97873.84;68394;1279;1015451;-69
2024/02/22 09:17:30;;;;;;;;;;;;;;;13.94;56.53;97868.39;68405;1279;1016377;-69
2024/02/22 09:20:32;;;;;;;;;;;;;;;13.77;57.36;97868.52;68401;1279;1016033;-69
2024/02/22 09:23:35;;;;;;;;;;;;;;;13.81;56.62;97863.05;68394;1279;1015980;-69
2024/02/22 09:26:37;;;;;;;;;;;;;;;13.88;57.82;97855.77;68429;1279;1015593;-69
2024/02/22 09:29:40;;;;;;;;;;;;;;;14.07;56.41;97853.55;68410;1279;1015749;-69
2024/02/22 09:32:43;;;;;;;;;;;;;;;14.02;56.55;97862.47;68402;1279;1015196;-64
2024/02/22 09:35:46;;;;;;;;;;;;;;;14.07;56.75;97864.96;68413;1279;1015092;-69
2024/02/22 09:38:49;;;;;;;;;;;;;;;14.07;57.03;97858.66;68405;1279;1015996;-68
2024/02/22 09:41:51;;;;;;;;;;;;;;;14.17;57.05;97851.43;68408;1279;1015622;-69
2024/02/22 09:44:54;;;;;;;;;;;;;;;14.34;56.76;97839.31;68397;1279;1015854;-69
2024/02/22 09:47:56;;;;;;;;;;;;;;;14.32;56.51;97834.73;68398;1279;1015706;-66
2024/02/22 09:50:59;;;;;;;;;;;;;;;14.40;56.76;97832.45;68406;1279;1015653;-69
2024/02/22 09:54:02;;;;;;;;;;;;;;;14.56;56.28;97827.40;68412;1279;1015742;-62
2024/02/22 09:57:05;;;;;;;;;;;;;;;14.62;56.52;97818.33;68407;1279;1015720;-69
2024/02/22 10:00:07;;;;;;;;;;;;;;;14.70;55.95;97816.02;68393;1279;1015592;-69
2024/02/22 10:03:10;;;;;;;;;;;;;;;14.84;56.33;97812.39;68427;1279;1014386;-69
2024/02/22 10:06:13;;;;;;;;;;;;;;;15.06;55.61;97804.09;68403;1279;1015979;-69
2024/02/22 10:09:16;;;;;;;;;;;;;;;15.21;55.55;97797.22;68410;1279;1016218;-67
2024/02/22 10:12:18;;;;;;;;;;;;;;;15.18;55.70;97788.91;68427;1279;1015704;-69
2024/02/22 10:15:25;;;;;;;;;;;;;;;15.13;54.80;97780.63;68413;1279;1016407;-69
2024/02/22 10:18:28;;;;;;;;;;;;;;;15.10;54.17;97771.00;68406;1279;1015089;-69
2024/02/22 10:21:31;;;;;;;;;;;;;;;15.05;53.13;97766.58;68398;1279;1015911;-69
2024/02/22 10:24:33;;;;;;;;;;;;;;;14.90;54.00;97763.26;68419;1279;1015362;-68
2024/02/22 10:27:36;;;;;;;;;;;;;;;14.84;53.31;97752.54;68416;1279;1015811;-69
2024/02/22 10:30:39;;;;;;;;;;;;;;;14.86;54.06;97744.09;68409;1279;1015824;-67
2024/02/22 10:33:41;;;;;;;;;;;;;;;14.88;53.85;97735.92;68403;1279;1015715;-69
2024/02/22 10:36:44;;;;;;;;;;;;;;;14.91;53.55;97728.50;68399;1279;1015489;-69
2024/02/22 10:39:47;;;;;;;;;;;;;;;14.83;54.45;97721.11;68414;1279;1015431;-68
2024/02/22 10:42:49;;;;;;;;;;;;;;;14.99;54.39;97717.83;68410;1279;1015326;-69
2024/02/22 10:45:52;;;;;;;;;;;;;;;15.10;54.41;97719.03;68405;1279;1015697;-68
2024/02/22 10:48:55;;;;;;;;;;;;;;;15.25;54.44;97710.95;68417;1279;1015909;-69
2024/02/22 10:51:57;;;;;;;;;;;;;;;15.26;53.75;97707.34;68418;1279;1016055;-69
2024/02/22 10:55:01;;;;;;;;;;;;;;;15.37;53.03;97693.59;68405;1279;1015716;-69
2024/02/22 10:58:04;;;;;;;;;;;;;;;15.43;53.16;97692.56;68419;1279;1015822;-69
2024/02/22 11:01:06;;;;;;;;;;;;;;;15.63;53.40;97688.02;68417;1279;1015431;-69
2024/02/22 11:04:09;;;;;;;;;;;;;;;15.63;53.29;97679.35;68420;1279;1015682;-69
2024/02/22 11:07:11;;;;;;;;;;;;;;;15.74;53.03;97672.30;68428;1279;1015564;-69
2024/02/22 11:10:14;;;;;;;;;;;;;;;15.82;53.24;97669.90;68418;1279;1015741;-69
2024/02/22 11:13:16;;;;;;;;;;;;;;;16.02;53.02;97660.81;68403;1279;1014815;-69
2024/02/22 11:16:19;;;;;;;;;;;;;;;16.22;52.65;97658.80;68409;1279;1016073;-63
2024/02/22 11:19:22;;;;;;;;;;;;;;;16.49;52.73;97654.77;68392;1279;1015903;-69
2024/02/22 11:22:25;;;;;;;;;;;;;;;16.73;51.89;97654.77;68394;1279;1016142;-69
2024/02/22 11:25:28;;;;;;;;;;;;;;;16.70;50.41;97648.59;68413;1279;1014605;-66
2024/02/22 11:28:30;;;;;;;;;;;;;;;16.61;51.18;97646.87;68416;1279;1016094;-69
2024/02/22 11:31:35;;;;;;;;;;;;;;;16.74;50.59;97644.40;68420;1279;1015398;-69
2024/02/22 11:34:37;;;;;;;;;;;;;;;16.79;50.37;97640.93;68424;1279;1015970;-65
2024/02/22 11:37:40;;;;;;;;;;;;;;;16.69;49.02;97638.10;68436;1279;1015874;-68
2024/02/22 11:40:42;;;;;;;;;;;;;;;16.65;50.30;97637.02;68422;1279;1014624;-69
2024/02/22 11:43:45;;;;;;;;;;;;;;;16.65;50.64;97632.68;68409;1279;1015507;-69
2024/02/22 11:46:47;;;;;;;;;;;;;;;16.70;51.08;97629.92;68429;1279;1016225;-69
2024/02/22 11:49:50;;;;;;;;;;;;;;;16.63;50.16;97626.11;68423;1279;1015170;-69
2024/02/22 11:52:52;;;;;;;;;;;;;;;16.69;50.71;97623.99;68422;1279;1016553;-70
2024/02/22 11:55:55;;;;;;;;;;;;;;;16.83;50.96;97620.96;68418;1279;1015497;-69
2024/02/22 11:58:58;;;;;;;;;;;;;;;16.85;49.79;97612.80;68425;1279;1015385;-67
2024/02/22 12:02:00;;;;;;;;;;;;;;;16.85;49.79;97605.77;68411;1279;1015380;-69
2024/02/22 12:05:03;;;;;;;;;;;;;;;16.78;50.24;97602.84;68422;1279;1015159;-69
2024/02/22 12:08:05;;;;;;;;;;;;;;;16.85;49.69;97587.34;68429;1279;1015907;-69
2024/02/22 12:11:08;;;;;;;;;;;;;;;16.80;49.22;97580.60;68428;1279;1015938;-69
2024/02/22 12:14:12;;;;;;;;;;;;;;;16.79;50.54;97582.02;68438;1279;1016103;-69
2024/02/22 12:17:14;;;;;;;;;;;;;;;16.94;49.84;97570.89;68431;1279;1015482;-69
2024/02/22 12:20:17;;;;;;;;;;;;;;;16.90;49.67;97565.14;68436;1279;1015449;-69
2024/02/22 12:23:20;;;;;;;;;;;;;;;17.04;50.06;97557.67;68423;1279;1015893;-68
2024/02/22 12:26:22;;;;;;;;;;;;;;;17.11;48.93;97558.48;68418;1279;1015691;-69
2024/02/22 12:29:25;;;;;;;;;;;;;;;17.18;49.49;97551.74;68429;1279;1015363;-69
2024/02/22 12:32:28;;;;;;;;;;;;;;;17.19;49.25;97547.30;68425;1279;1016217;-69
2024/02/22 12:35:30;;;;;;;;;;;;;;;17.17;49.34;97545.81;68433;1279;1015783;-69
2024/02/22 12:38:33;;;;;;;;;;;;;;;17.05;48.89;97543.00;68433;1279;1015411;-69
2024/02/22 12:41:36;;;;;;;;;;;;;;;17.09;48.91;97534.86;68413;1279;1015680;-69
2024/02/22 12:44:38;;;;;;;;;;;;;;;17.10;48.59;97527.88;68436;1279;1015500;-69
2024/02/22 12:47:41;;;;;;;;;;;;;;;17.16;49.06;97519.95;68423;1279;1015581;-69
2024/02/22 12:50:44;;;;;;;;;;;;;;;17.31;48.83;97512.84;68433;1279;1016283;-69
2024/02/22 12:53:48;;;;;;;;;;;;;;;17.21;48.47;97507.89;68421;1279;1015668;-69
2024/02/22 12:56:51;;;;;;;;;;;;;;;17.13;48.34;97504.88;68420;1279;1014336;-68
2024/02/22 12:59:55;;;;;;;;;;;;;;;17.07;48.35;97492.55;68424;1279;1015329;-69
2024/02/22 13:02:58;;;;;;;;;;;;;;;17.00;48.36;97488.19;68425;1279;1015524;-69
2024/02/22 13:06:00;;;;;;;;;;;;;;;16.98;48.70;97479.55;68423;1279;1014447;-69
2024/02/22 13:09:03;;;;;;;;;;;;;;;16.89;48.03;97470.33;68430;1279;1015680;-69
2024/02/22 13:12:05;;;;;;;;;;;;;;;16.81;48.45;97464.23;68437;1279;1015138;-69
2024/02/22 13:15:08;;;;;;;;;;;;;;;16.68;48.62;97455.19;68407;1279;1015857;-69
2024/02/22 13:18:11;;;;;;;;;;;;;;;16.71;48.59;97443.52;68438;1279;1015602;-69
2024/02/22 13:21:13;;;;;;;;;;;;;;;16.67;47.48;97433.55;68432;1279;1015483;-68
2024/02/22 13:24:16;;;;;;;;;;;;;;;16.62;48.29;97430.62;68441;1279;1015323;-69
2024/02/22 13:27:18;;;;;;;;;;;;;;;16.66;48.03;97425.06;68432;1279;1016123;-68
2024/02/22 13:30:22;;;;;;;;;;;;;;;16.67;48.15;97422.93;68428;1279;1015420;-68
2024/02/22 13:33:25;;;;;;;;;;;;;;;16.79;48.01;97414.98;68428;1279;1015199;-69
2024/02/22 13:36:28;;;;;;;;;;;;;;;16.71;47.60;97409.95;68444;1279;1016439;-68
2024/02/22 13:39:30;;;;;;;;;;;;;;;16.71;47.35;97407.05;68427;1279;1016052;-69
2024/02/22 13:42:34;;;;;;;;;;;;;;;16.88;47.40;97400.11;68429;1279;1016694;-69
2024/02/22 13:45:37;;;;;;;;;;;;;;;16.97;47.47;97399.64;68439;1279;1015964;-69
2024/02/22 13:48:41;;;;;;;;;;;;;;;16.98;47.09;97395.16;68415;1279;1015263;-69
2024/02/22 13:51:46;;;;;;;;;;;;;;;16.98;46.82;97390.91;68424;1279;1015735;-69
2024/02/22 13:54:48;;;;;;;;;;;;;;;17.02;46.06;97389.14;68426;1279;1015841;-68
2024/02/22 13:57:51;;;;;;;;;;;;;;;17.12;46.46;97384.00;68438;1279;1016118;-68
2024/02/22 14:00:54;;;;;;;;;;;;;;;17.12;46.33;97385.29;68445;1279;1016230;-69
2024/02/22 14:03:56;;;;;;;;;;;;;;;17.14;45.78;97380.70;68441;1279;1015335;-68
2024/02/22 14:06:59;;;;;;;;;;;;;;;17.25;45.72;97377.89;68414;1279;1015164;-69
2024/02/22 14:10:02;;;;;;;;;;;;;;;17.29;46.13;97371.41;68449;1279;1015264;-68
2024/02/22 14:13:05;;;;;;;;;;;;;;;17.32;45.93;97368.73;68429;1279;1015594;-68
2024/02/22 14:16:09;;;;;;;;;;;;;;;17.47;45.99;97367.83;68420;1279;1016005;-68
2024/02/22 14:19:14;;;;;;;;;;;;;;;17.44;45.78;97356.24;68445;1279;1015921;-69
2024/02/22 14:22:16;;;;;;;;;;;;;;;17.36;45.47;97346.98;68441;1279;1015931;-69
2024/02/22 14:25:19;;;;;;;;;;;;;;;17.27;45.37;97347.41;68442;1279;1015403;-68
2024/02/22 14:28:21;;;;;;;;;;;;;;;17.16;45.40;97341.59;68437;1279;1016159;-69
2024/02/22 14:31:24;;;;;;;;;;;;;;;17.05;45.80;97335.04;68423;1279;1015425;-69
2024/02/22 14:34:27;;;;;;;;;;;;;;;17.03;45.70;97327.67;68469;1279;1015903;-69
2024/02/22 14:37:30;;;;;;;;;;;;;;;17.06;45.88;97318.72;68430;1279;1014391;-69
2024/02/22 14:40:32;;;;;;;;;;;;;;;16.99;45.31;97311.13;68432;1279;1015811;-68
2024/02/22 14:43:35;;;;;;;;;;;;;;;16.87;45.70;97309.80;68434;1280;1015177;-69
2024/02/22 14:46:37;;;;;;;;;;;;;;;16.74;45.74;97311.55;68447;1279;1015364;-69
2024/02/22 14:49:43;;;;;;;;;;;;;;;16.59;46.04;97305.24;68456;1279;1015655;-69
2024/02/22 14:52:46;;;;;;;;;;;;;;;16.56;46.09;97300.10;68442;1279;1015899;-69
2024/02/22 14:55:48;;;;;;;;;;;;;;;16.60;46.20;97296.89;68425;1279;1015191;-69
2024/02/22 14:58:51;;;;;;;;;;;;;;;16.58;45.94;97293.18;68452;1280;1014771;-69
2024/02/22 15:01:54;;;;;;;;;;;;;;;16.53;45.97;97288.33;68442;1279;1015687;-69
2024/02/22 15:04:56;;;;;;;;;;;;;;;16.42;46.23;97290.30;68453;1279;1015478;-69
2024/02/22 15:07:59;;;;;;;;;;;;;;;16.31;46.14;97289.92;68453;1279;1015267;-69
2024/02/22 15:11:02;;;;;;;;;;;;;;;16.19;46.63;97281.56;68432;1279;1015635;-69
2024/02/22 15:14:04;;;;;;;;;;;;;;;16.11;46.56;97279.45;68437;1279;1015258;-69
2024/02/22 15:17:08;;;;;;;;;;;;;;;16.04;46.93;97279.27;68453;1280;1016060;-69
2024/02/22 15:20:11;;;;;;;;;;;;;;;16.04;46.71;97273.31;68431;1279;1016019;-69
2024/02/22 15:23:13;;;;;;;;;;;;;;;15.95;47.04;97274.31;68425;1279;1015803;-69
2024/02/22 15:26:16;;;;;;;;;;;;;;;16.06;46.71;97269.38;68423;1280;1015799;-69
2024/02/22 15:29:18;;;;;;;;;;;;;;;16.03;46.73;97269.02;68423;1279;1015907;-69
2024/02/22 15:32:21;;;;;;;;;;;;;;;15.88;47.00;97264.20;68436;1280;1015921;-68
2024/02/22 15:35:24;;;;;;;;;;;;;;;15.83;47.28;97263.77;68431;1279;1015513;-69